createdAt,value
2023-05-04T00:02:51.245Z,71.27
2023-05-04T00:07:53.551Z,71.10
2023-05-04T00:12:55.938Z,76.00
2023-05-04T00:17:58.570Z,83.07
2023-05-04T00:23:00.969Z,80.07
2023-05-04T00:28:03.284Z,75.63
2023-05-04T00:33:05.602Z,82.83
2023-05-04T00:38:07.969Z,87.10
2023-05-04T00:43:10.305Z,85.87
2023-05-04T00:48:12.828Z,98.33
2023-05-04T00:53:15.425Z,96.33
2023-05-04T00:58:18.397Z,88.97
2023-05-04T01:03:21.009Z,95.23
2023-05-04T01:08:30.981Z,85.40
2023-05-04T01:13:35.872Z,77.47
2023-05-04T01:18:38.781Z,75.70
2023-05-04T01:23:41.177Z,76.77
2023-05-04T01:29:11.702Z,82.13
2023-05-04T01:34:15.930Z,60.13
2023-05-04T01:39:18.503Z,53.53
2023-05-04T01:44:20.909Z,46.67
2023-05-04T01:49:23.283Z,43.37
2023-05-04T01:54:25.997Z,27.03
2023-05-04T01:59:28.373Z,26.03
2023-05-04T02:04:31.200Z,21.10
2023-05-04T02:09:33.875Z,25.73
2023-05-04T02:14:36.166Z,46.50
2023-05-04T02:19:40.126Z,40.43
2023-05-04T02:24:42.445Z,38.97
2023-05-04T02:29:44.706Z,34.20
2023-05-04T02:34:46.989Z,33.20
2023-05-04T02:39:49.282Z,29.77
2023-05-04T02:44:51.623Z,33.40
2023-05-04T02:49:53.928Z,24.87
2023-05-04T02:54:56.515Z,22.93
2023-05-04T02:59:58.907Z,24.73
2023-05-04T03:05:01.260Z,23.20
2023-05-04T03:10:04.038Z,22.43
2023-05-04T03:15:07.363Z,24.73
2023-05-04T03:20:10.965Z,23.87
2023-05-04T03:25:13.393Z,25.67
2023-05-04T03:30:16.211Z,20.63
2023-05-04T03:35:38.640Z,20.43
2023-05-04T03:40:41.851Z,23.63
2023-05-04T03:45:44.199Z,27.73
2023-05-04T03:50:46.579Z,25.70
2023-05-04T03:55:50.649Z,24.10
2023-05-04T04:00:53.033Z,25.53
2023-05-04T04:05:55.537Z,20.97
2023-05-04T04:11:00.477Z,28.87
2023-05-04T04:16:03.383Z,23.23
2023-05-04T04:21:06.008Z,26.10
2023-05-04T04:26:08.350Z,29.63
2023-05-04T04:31:11.100Z,28.23
2023-05-04T04:36:16.694Z,22.50
2023-05-04T04:41:19.213Z,24.03
2023-05-04T04:46:21.598Z,28.53
2023-05-04T04:51:23.997Z,26.53
2023-05-04T04:56:26.495Z,25.73
2023-05-04T05:01:29.903Z,21.80
2023-05-04T05:06:32.257Z,24.37
2023-05-04T05:11:34.601Z,23.17
2023-05-04T05:16:37.113Z,24.80
2023-05-04T05:21:39.624Z,26.83
2023-05-04T05:26:42.552Z,25.27
2023-05-04T05:31:44.775Z,27.27
2023-05-04T05:36:49.052Z,32.13
2023-05-04T05:41:51.310Z,26.27
2023-05-04T05:46:53.648Z,26.70
2023-05-04T05:51:55.899Z,28.53
2023-05-04T05:56:58.546Z,31.53
2023-05-04T06:02:00.815Z,24.03
2023-05-04T06:07:03.108Z,32.87
2023-05-04T06:12:07.166Z,23.13
2023-05-04T06:17:09.814Z,24.70
2023-05-04T06:22:12.230Z,29.50
2023-05-04T06:27:14.533Z,21.13
2023-05-04T06:32:16.844Z,19.60
2023-05-04T06:37:19.511Z,21.13
2023-05-04T06:42:21.911Z,24.43
2023-05-04T06:47:25.725Z,20.63
2023-05-04T06:52:29.686Z,22.67
2023-05-04T06:57:32.491Z,17.77
2023-05-04T07:02:34.831Z,28.03
2023-05-04T07:07:37.586Z,11.20
2023-05-04T07:12:41.728Z,11.97
2023-05-04T07:17:44.151Z,8.13
2023-05-04T07:22:46.953Z,14.07
2023-05-04T07:27:49.221Z,17.07
2023-05-04T07:32:51.847Z,8.77
2023-05-04T07:37:54.862Z,11.83
2023-05-04T07:42:57.330Z,7.73
2023-05-04T07:47:59.621Z,9.63
2023-05-04T07:53:02.434Z,8.80
2023-05-04T07:58:04.987Z,11.10
2023-05-04T08:03:07.451Z,6.07
2023-05-04T08:08:09.853Z,6.37
2023-05-04T08:13:12.483Z,3.37
2023-05-04T08:18:14.926Z,3.73
2023-05-04T08:23:18.831Z,6.40
2023-05-04T08:28:26.499Z,5.93
2023-05-04T08:39:21.304Z,4.60
2023-05-04T08:44:31.428Z,5.57
2023-05-04T08:49:33.825Z,8.60
2023-05-04T08:54:37.178Z,4.03
2023-05-04T08:59:39.719Z,4.23
2023-05-04T09:04:42.081Z,3.87
2023-05-04T09:09:44.810Z,5.73
2023-05-04T09:14:47.462Z,6.70
2023-05-04T09:20:00.088Z,6.13
2023-05-04T09:25:12.269Z,6.17
2023-05-04T09:30:14.668Z,5.40
2023-05-04T09:35:31.936Z,8.00
2023-05-04T09:40:41.319Z,6.27
2023-05-04T09:45:45.730Z,5.60
2023-05-04T09:56:52.200Z,7.23
2023-05-04T10:01:54.927Z,6.43
2023-05-04T10:06:57.482Z,4.90
2023-05-04T10:12:01.286Z,6.17
2023-05-04T10:17:21.243Z,6.43
2023-05-04T10:22:35.407Z,5.80
2023-05-04T10:28:08.250Z,5.37
2023-05-04T10:33:12.086Z,5.60
2023-05-04T10:38:14.706Z,6.47
2023-05-04T10:43:26.739Z,6.03
2023-05-04T10:48:36.062Z,6.27
2023-05-04T10:53:38.419Z,7.53
2023-05-04T10:58:40.730Z,6.27
2023-05-04T11:03:43.295Z,7.70
2023-05-04T11:08:58.352Z,5.70
2023-05-04T11:14:00.735Z,6.70
2023-05-04T11:19:12.601Z,6.50
2023-05-04T11:24:14.925Z,6.77
2023-05-04T11:29:17.637Z,7.00
2023-05-04T11:34:21.075Z,6.00
2023-05-04T11:39:23.487Z,9.93
2023-05-04T11:44:26.064Z,8.17
2023-05-04T11:49:31.155Z,6.33
2023-05-04T11:54:33.624Z,9.90
2023-05-04T11:59:36.022Z,5.90
2023-05-04T12:04:38.310Z,7.40
2023-05-04T12:09:50.100Z,4.17
2023-05-04T12:14:58.038Z,9.67
2023-05-04T12:20:00.294Z,4.47
2023-05-04T12:25:02.700Z,6.70
2023-05-04T12:30:06.090Z,4.03
2023-05-04T12:35:09.012Z,5.67
2023-05-04T12:40:27.257Z,8.80
2023-05-04T12:45:30.946Z,5.50
2023-05-04T12:50:33.225Z,5.33
2023-05-04T12:55:35.486Z,7.23
2023-05-04T13:00:38.857Z,6.18
2023-05-04T13:05:41.155Z,11.17
2023-05-04T13:10:43.805Z,8.37
2023-05-04T13:15:50.267Z,7.50
2023-05-04T13:20:54.132Z,7.63
2023-05-04T13:25:56.652Z,6.25
2023-05-04T13:30:59.897Z,7.80
2023-05-04T13:36:03.200Z,5.72
2023-05-04T13:41:05.688Z,5.40
2023-05-04T13:46:08.016Z,13.60
2023-05-04T13:51:11.273Z,6.38
2023-05-04T13:56:13.639Z,12.40
2023-05-04T14:01:16.304Z,6.88
2023-05-04T14:06:18.608Z,5.28
2023-05-04T14:11:20.902Z,8.02
2023-05-04T14:16:23.629Z,6.78
2023-05-04T14:21:26.047Z,4.68
2023-05-04T14:26:28.345Z,6.63
2023-05-04T14:31:31.148Z,8.38
2023-05-04T14:36:33.456Z,8.45
2023-05-04T14:41:37.343Z,12.35
2023-05-04T14:46:39.675Z,5.15
2023-05-04T14:51:41.918Z,6.45
2023-05-04T14:56:44.171Z,5.55
2023-05-04T15:01:47.020Z,5.88
2023-05-04T15:06:49.639Z,6.47
2023-05-04T15:11:52.161Z,7.03
2023-05-04T15:16:54.457Z,5.30
2023-05-04T15:21:56.704Z,7.28
2023-05-04T15:26:59.141Z,11.77
2023-05-04T15:32:01.987Z,7.05
2023-05-04T15:37:04.252Z,6.72
2023-05-04T15:42:06.675Z,3.90
2023-05-04T15:47:11.152Z,6.78
2023-05-04T15:52:13.453Z,7.93
2023-05-04T15:57:16.170Z,6.30
2023-05-04T16:02:18.630Z,7.90
2023-05-04T16:07:21.106Z,9.63
2023-05-04T16:12:23.426Z,8.93
2023-05-04T16:17:26.142Z,9.23
2023-05-04T16:22:28.439Z,5.67
2023-05-04T16:27:31.026Z,7.10
2023-05-04T16:32:33.340Z,4.43
2023-05-04T16:37:37.263Z,8.13
2023-05-04T16:42:39.916Z,6.10
2023-05-04T16:47:43.645Z,5.67
2023-05-04T16:52:46.064Z,7.37
2023-05-04T16:57:48.393Z,7.73
2023-05-04T17:02:52.556Z,7.07
2023-05-04T17:07:54.888Z,5.93
2023-05-04T17:12:57.209Z,5.67
2023-05-04T17:18:00.027Z,7.73
2023-05-04T17:23:02.453Z,33.67
2023-05-04T17:28:05.084Z,42.93
2023-05-04T17:33:07.446Z,16.00
2023-05-04T17:38:09.714Z,17.30
2023-05-04T17:43:11.960Z,11.77
2023-05-04T17:48:14.330Z,9.73
2023-05-04T17:53:16.596Z,5.37
2023-05-04T17:58:19.078Z,11.07
2023-05-04T18:03:21.479Z,6.10
2023-05-04T18:08:23.906Z,21.40
2023-05-04T18:13:26.755Z,31.37
2023-05-04T18:18:29.014Z,28.67
2023-05-04T18:23:31.361Z,65.40
2023-05-04T18:28:33.681Z,107.30
2023-05-04T18:33:36.264Z,175.10
2023-05-04T18:38:38.580Z,61.47
2023-05-04T18:43:41.736Z,54.70
2023-05-04T18:48:43.977Z,117.60
2023-05-04T18:53:46.994Z,84.97
2023-05-04T18:58:49.391Z,50.07
2023-05-04T19:03:51.683Z,24.93
2023-05-04T19:08:54.039Z,13.00
2023-05-04T19:13:56.342Z,17.27
2023-05-04T19:18:58.620Z,15.90
2023-05-04T19:24:01.054Z,12.67
2023-05-04T19:29:03.482Z,13.37
2023-05-04T19:34:06.068Z,11.50
2023-05-04T19:39:09.879Z,15.20
2023-05-04T19:44:12.206Z,11.73
2023-05-04T19:49:14.494Z,13.47
2023-05-04T19:54:16.768Z,9.93
2023-05-04T19:59:19.355Z,10.40
2023-05-04T20:04:21.693Z,8.70
2023-05-04T20:09:23.962Z,13.47
2023-05-04T20:14:26.333Z,12.80
2023-05-04T20:19:28.771Z,15.97
2023-05-04T20:24:31.029Z,17.63
2023-05-04T20:29:33.891Z,15.60
2023-05-04T20:34:38.929Z,18.77
2023-05-04T20:39:41.165Z,15.00
2023-05-04T20:44:43.399Z,13.93
2023-05-04T20:49:45.644Z,14.87
2023-05-04T20:54:47.892Z,16.77
2023-05-04T20:59:50.694Z,19.50
2023-05-04T21:04:53.049Z,18.47
2023-05-04T21:09:57.648Z,15.37
2023-05-04T21:14:59.892Z,13.97
2023-05-04T21:20:02.271Z,13.47
2023-05-04T21:25:05.410Z,11.57
2023-05-04T21:30:09.832Z,15.17
2023-05-04T21:35:12.512Z,24.00
2023-05-04T21:40:14.908Z,17.37
2023-05-04T21:45:17.156Z,13.70
2023-05-04T21:50:19.427Z,13.27
2023-05-04T21:55:21.698Z,15.70
2023-05-04T22:00:24.201Z,17.30
2023-05-04T22:05:26.454Z,17.13
2023-05-04T22:10:28.821Z,14.13
2023-05-04T22:15:42.166Z,15.80
2023-05-04T22:20:51.952Z,12.77
2023-05-04T22:25:54.188Z,12.77
2023-05-04T22:30:56.752Z,15.23
2023-05-04T22:35:59.102Z,11.83
2023-05-04T22:41:01.539Z,14.23
2023-05-04T22:46:03.838Z,17.50
2023-05-04T22:51:06.380Z,13.30
2023-05-04T22:56:08.933Z,9.13
2023-05-04T23:01:11.739Z,9.37
2023-05-04T23:06:15.183Z,15.17
2023-05-04T23:11:21.051Z,11.50
2023-05-04T23:16:23.356Z,15.90
2023-05-04T23:21:25.826Z,13.67
2023-05-04T23:26:28.106Z,15.80
2023-05-04T23:31:30.557Z,20.87
2023-05-04T23:36:33.802Z,16.60
2023-05-04T23:41:36.035Z,16.17
2023-05-04T23:46:38.330Z,12.43
2023-05-04T23:51:40.695Z,10.90
2023-05-04T23:56:42.982Z,15.23
